sensor_id;sensor_type;location;lat;lon;timestamp;P1;durP1;ratioP1;P2;durP2;ratioP2
19030;SDS011;9648;51.130;13.978;2023-12-20T00:00:11;7.07;;;3.87;;
19030;SDS011;9648;51.130;13.978;2023-12-20T00:03:13;5.93;;;3.03;;
19030;SDS011;9648;51.130;13.978;2023-12-20T00:06:15;4.50;;;2.63;;
19030;SDS011;9648;51.130;13.978;2023-12-20T00:09:17;3.73;;;2.30;;
19030;SDS011;9648;51.130;13.978;2023-12-20T00:12:19;3.60;;;2.50;;
19030;SDS011;9648;51.130;13.978;2023-12-20T00:15:21;3.13;;;2.33;;
19030;SDS011;9648;51.130;13.978;2023-12-20T00:18:22;2.43;;;1.90;;
19030;SDS011;9648;51.130;13.978;2023-12-20T00:21:24;3.00;;;2.17;;
19030;SDS011;9648;51.130;13.978;2023-12-20T00:24:25;3.47;;;2.40;;
19030;SDS011;9648;51.130;13.978;2023-12-20T00:27:28;3.53;;;2.30;;
19030;SDS011;9648;51.130;13.978;2023-12-20T00:30:30;3.17;;;1.90;;
19030;SDS011;9648;51.130;13.978;2023-12-20T00:33:31;3.77;;;2.40;;
19030;SDS011;9648;51.130;13.978;2023-12-20T00:36:33;4.97;;;2.23;;
19030;SDS011;9648;51.130;13.978;2023-12-20T00:39:34;5.67;;;2.20;;
19030;SDS011;9648;51.130;13.978;2023-12-20T00:42:37;4.03;;;2.30;;
19030;SDS011;9648;51.130;13.978;2023-12-20T00:45:39;3.43;;;2.20;;
19030;SDS011;9648;51.130;13.978;2023-12-20T00:48:40;4.47;;;2.23;;
19030;SDS011;9648;51.130;13.978;2023-12-20T00:51:45;2.83;;;2.10;;
19030;SDS011;9648;51.130;13.978;2023-12-20T00:54:48;3.67;;;2.17;;
19030;SDS011;9648;51.130;13.978;2023-12-20T00:57:51;3.37;;;2.20;;
19030;SDS011;9648;51.130;13.978;2023-12-20T01:00:54;3.40;;;2.23;;
19030;SDS011;9648;51.130;13.978;2023-12-20T01:03:56;4.60;;;2.73;;
19030;SDS011;9648;51.130;13.978;2023-12-20T01:06:57;4.47;;;2.70;;
19030;SDS011;9648;51.130;13.978;2023-12-20T01:09:59;3.10;;;2.27;;
19030;SDS011;9648;51.130;13.978;2023-12-20T01:13:02;2.83;;;1.90;;
19030;SDS011;9648;51.130;13.978;2023-12-20T01:16:04;2.80;;;1.80;;
19030;SDS011;9648;51.130;13.978;2023-12-20T01:19:06;2.30;;;1.90;;
19030;SDS011;9648;51.130;13.978;2023-12-20T01:22:07;2.80;;;1.70;;
19030;SDS011;9648;51.130;13.978;2023-12-20T01:25:09;3.07;;;1.97;;
19030;SDS011;9648;51.130;13.978;2023-12-20T01:28:12;2.87;;;1.73;;
19030;SDS011;9648;51.130;13.978;2023-12-20T01:31:13;2.47;;;1.73;;
19030;SDS011;9648;51.130;13.978;2023-12-20T01:34:18;2.57;;;1.60;;
19030;SDS011;9648;51.130;13.978;2023-12-20T01:37:19;2.83;;;1.90;;
19030;SDS011;9648;51.130;13.978;2023-12-20T01:40:21;2.73;;;1.80;;
19030;SDS011;9648;51.130;13.978;2023-12-20T01:43:24;2.77;;;1.73;;
19030;SDS011;9648;51.130;13.978;2023-12-20T01:46:25;2.10;;;1.80;;
19030;SDS011;9648;51.130;13.978;2023-12-20T01:49:28;3.00;;;1.77;;
19030;SDS011;9648;51.130;13.978;2023-12-20T01:52:30;2.40;;;1.70;;
19030;SDS011;9648;51.130;13.978;2023-12-20T01:55:34;2.37;;;1.53;;
19030;SDS011;9648;51.130;13.978;2023-12-20T01:58:38;2.17;;;1.60;;
19030;SDS011;9648;51.130;13.978;2023-12-20T02:01:40;3.17;;;1.50;;
19030;SDS011;9648;51.130;13.978;2023-12-20T02:04:42;2.60;;;1.50;;
19030;SDS011;9648;51.130;13.978;2023-12-20T02:07:43;3.17;;;1.70;;
19030;SDS011;9648;51.130;13.978;2023-12-20T02:10:45;1.70;;;1.27;;
19030;SDS011;9648;51.130;13.978;2023-12-20T02:13:48;2.30;;;1.80;;
19030;SDS011;9648;51.130;13.978;2023-12-20T02:16:49;2.00;;;1.50;;
19030;SDS011;9648;51.130;13.978;2023-12-20T02:19:51;3.13;;;1.33;;
19030;SDS011;9648;51.130;13.978;2023-12-20T02:22:54;2.23;;;1.40;;
19030;SDS011;9648;51.130;13.978;2023-12-20T02:25:55;2.23;;;1.30;;
19030;SDS011;9648;51.130;13.978;2023-12-20T02:28:57;1.67;;;1.20;;
19030;SDS011;9648;51.130;13.978;2023-12-20T02:31:59;2.67;;;1.20;;
19030;SDS011;9648;51.130;13.978;2023-12-20T02:35:01;1.73;;;1.20;;
19030;SDS011;9648;51.130;13.978;2023-12-20T02:38:04;1.37;;;1.20;;
19030;SDS011;9648;51.130;13.978;2023-12-20T02:41:05;1.37;;;1.00;;
19030;SDS011;9648;51.130;13.978;2023-12-20T02:44:07;1.33;;;1.00;;
19030;SDS011;9648;51.130;13.978;2023-12-20T02:47:08;1.47;;;1.10;;
19030;SDS011;9648;51.130;13.978;2023-12-20T02:50:10;2.23;;;1.20;;
19030;SDS011;9648;51.130;13.978;2023-12-20T02:53:13;2.07;;;1.40;;
19030;SDS011;9648;51.130;13.978;2023-12-20T02:56:15;1.77;;;1.20;;
19030;SDS011;9648;51.130;13.978;2023-12-20T02:59:16;1.67;;;1.10;;
19030;SDS011;9648;51.130;13.978;2023-12-20T03:02:19;2.27;;;1.10;;
19030;SDS011;9648;51.130;13.978;2023-12-20T03:05:20;1.37;;;1.00;;
19030;SDS011;9648;51.130;13.978;2023-12-20T03:08:23;2.47;;;1.10;;
19030;SDS011;9648;51.130;13.978;2023-12-20T03:11:26;1.40;;;1.03;;
19030;SDS011;9648;51.130;13.978;2023-12-20T03:14:27;1.10;;;0.87;;
19030;SDS011;9648;51.130;13.978;2023-12-20T03:17:29;1.00;;;0.90;;
19030;SDS011;9648;51.130;13.978;2023-12-20T03:20:31;1.80;;;1.10;;
19030;SDS011;9648;51.130;13.978;2023-12-20T03:23:35;1.57;;;1.10;;
19030;SDS011;9648;51.130;13.978;2023-12-20T03:26:37;1.50;;;1.17;;
19030;SDS011;9648;51.130;13.978;2023-12-20T03:29:38;1.20;;;0.90;;
19030;SDS011;9648;51.130;13.978;2023-12-20T03:32:39;1.20;;;1.00;;
19030;SDS011;9648;51.130;13.978;2023-12-20T03:35:41;1.70;;;1.00;;
19030;SDS011;9648;51.130;13.978;2023-12-20T03:38:44;1.10;;;1.00;;
19030;SDS011;9648;51.130;13.978;2023-12-20T03:41:45;3.17;;;0.90;;
19030;SDS011;9648;51.130;13.978;2023-12-20T03:44:47;1.33;;;0.97;;
19030;SDS011;9648;51.130;13.978;2023-12-20T03:47:48;1.43;;;0.90;;
19030;SDS011;9648;51.130;13.978;2023-12-20T03:50:50;0.93;;;0.80;;
19030;SDS011;9648;51.130;13.978;2023-12-20T03:53:53;1.20;;;0.90;;
19030;SDS011;9648;51.130;13.978;2023-12-20T03:56:54;1.13;;;1.00;;
19030;SDS011;9648;51.130;13.978;2023-12-20T03:59:56;0.97;;;0.87;;
19030;SDS011;9648;51.130;13.978;2023-12-20T04:02:57;1.73;;;1.00;;
19030;SDS011;9648;51.130;13.978;2023-12-20T04:05:59;0.97;;;0.90;;
19030;SDS011;9648;51.130;13.978;2023-12-20T04:09:02;2.70;;;1.60;;
19030;SDS011;9648;51.130;13.978;2023-12-20T04:12:03;3.77;;;1.53;;
19030;SDS011;9648;51.130;13.978;2023-12-20T04:15:06;2.00;;;1.20;;
19030;SDS011;9648;51.130;13.978;2023-12-20T04:18:09;1.90;;;1.00;;
19030;SDS011;9648;51.130;13.978;2023-12-20T04:21:10;0.90;;;0.83;;
19030;SDS011;9648;51.130;13.978;2023-12-20T04:24:13;1.37;;;1.10;;
19030;SDS011;9648;51.130;13.978;2023-12-20T04:27:16;1.20;;;0.90;;
19030;SDS011;9648;51.130;13.978;2023-12-20T04:30:17;1.00;;;0.90;;
19030;SDS011;9648;51.130;13.978;2023-12-20T04:33:19;1.37;;;1.10;;
19030;SDS011;9648;51.130;13.978;2023-12-20T04:36:20;1.13;;;1.00;;
19030;SDS011;9648;51.130;13.978;2023-12-20T04:39:23;1.73;;;1.03;;
19030;SDS011;9648;51.130;13.978;2023-12-20T04:42:25;1.33;;;0.90;;
19030;SDS011;9648;51.130;13.978;2023-12-20T04:45:26;0.90;;;0.90;;
19030;SDS011;9648;51.130;13.978;2023-12-20T04:48:28;0.83;;;0.67;;
19030;SDS011;9648;51.130;13.978;2023-12-20T04:51:29;1.00;;;0.90;;
19030;SDS011;9648;51.130;13.978;2023-12-20T04:54:32;1.00;;;0.90;;
19030;SDS011;9648;51.130;13.978;2023-12-20T04:57:34;1.03;;;0.87;;
19030;SDS011;9648;51.130;13.978;2023-12-20T05:00:35;1.40;;;1.10;;
19030;SDS011;9648;51.130;13.978;2023-12-20T05:03:38;1.30;;;0.97;;
19030;SDS011;9648;51.130;13.978;2023-12-20T05:06:39;1.10;;;0.90;;
19030;SDS011;9648;51.130;13.978;2023-12-20T05:09:42;0.80;;;0.80;;
19030;SDS011;9648;51.130;13.978;2023-12-20T05:12:44;2.03;;;0.90;;
19030;SDS011;9648;51.130;13.978;2023-12-20T05:15:45;1.23;;;1.00;;
19030;SDS011;9648;51.130;13.978;2023-12-20T05:18:48;1.47;;;1.00;;
19030;SDS011;9648;51.130;13.978;2023-12-20T05:21:50;0.90;;;0.77;;
19030;SDS011;9648;51.130;13.978;2023-12-20T05:24:53;0.90;;;0.80;;
19030;SDS011;9648;51.130;13.978;2023-12-20T05:27:55;1.60;;;0.77;;
19030;SDS011;9648;51.130;13.978;2023-12-20T05:30:56;1.10;;;0.70;;
19030;SDS011;9648;51.130;13.978;2023-12-20T05:33:58;2.47;;;1.30;;
19030;SDS011;9648;51.130;13.978;2023-12-20T05:36:59;1.10;;;1.00;;
19030;SDS011;9648;51.130;13.978;2023-12-20T05:40:03;1.50;;;1.20;;
19030;SDS011;9648;51.130;13.978;2023-12-20T05:43:05;1.53;;;1.10;;
19030;SDS011;9648;51.130;13.978;2023-12-20T05:46:07;1.40;;;1.30;;
19030;SDS011;9648;51.130;13.978;2023-12-20T05:49:08;1.40;;;1.30;;
19030;SDS011;9648;51.130;13.978;2023-12-20T05:52:10;1.30;;;1.10;;
19030;SDS011;9648;51.130;13.978;2023-12-20T05:55:13;1.60;;;1.20;;
19030;SDS011;9648;51.130;13.978;2023-12-20T05:58:15;1.90;;;1.47;;
19030;SDS011;9648;51.130;13.978;2023-12-20T06:01:16;1.87;;;1.20;;
19030;SDS011;9648;51.130;13.978;2023-12-20T06:04:18;1.67;;;1.40;;
19030;SDS011;9648;51.130;13.978;2023-12-20T06:07:19;1.40;;;1.20;;
19030;SDS011;9648;51.130;13.978;2023-12-20T06:10:22;1.40;;;1.27;;
19030;SDS011;9648;51.130;13.978;2023-12-20T06:13:26;1.63;;;1.30;;
19030;SDS011;9648;51.130;13.978;2023-12-20T06:16:28;1.53;;;1.30;;
19030;SDS011;9648;51.130;13.978;2023-12-20T06:19:29;2.00;;;1.50;;
19030;SDS011;9648;51.130;13.978;2023-12-20T06:22:31;1.30;;;1.10;;
19030;SDS011;9648;51.130;13.978;2023-12-20T06:25:34;1.03;;;0.93;;
19030;SDS011;9648;51.130;13.978;2023-12-20T06:28:35;3.00;;;1.20;;
19030;SDS011;9648;51.130;13.978;2023-12-20T06:31:36;2.07;;;1.40;;
19030;SDS011;9648;51.130;13.978;2023-12-20T06:34:38;1.47;;;1.30;;
19030;SDS011;9648;51.130;13.978;2023-12-20T06:37:40;1.90;;;1.30;;
19030;SDS011;9648;51.130;13.978;2023-12-20T06:40:43;1.53;;;1.30;;
19030;SDS011;9648;51.130;13.978;2023-12-20T06:43:45;1.30;;;1.20;;
19030;SDS011;9648;51.130;13.978;2023-12-20T06:46:47;1.70;;;1.30;;
19030;SDS011;9648;51.130;13.978;2023-12-20T06:49:49;1.63;;;1.47;;
19030;SDS011;9648;51.130;13.978;2023-12-20T06:52:50;1.63;;;1.50;;
19030;SDS011;9648;51.130;13.978;2023-12-20T06:55:54;2.57;;;1.60;;
19030;SDS011;9648;51.130;13.978;2023-12-20T06:58:56;2.20;;;1.50;;
19030;SDS011;9648;51.130;13.978;2023-12-20T07:01:57;2.33;;;1.77;;
19030;SDS011;9648;51.130;13.978;2023-12-20T07:04:59;3.07;;;2.40;;
19030;SDS011;9648;51.130;13.978;2023-12-20T07:08:00;3.60;;;2.13;;
19030;SDS011;9648;51.130;13.978;2023-12-20T07:11:03;2.37;;;1.80;;
19030;SDS011;9648;51.130;13.978;2023-12-20T07:14:05;3.63;;;2.20;;
19030;SDS011;9648;51.130;13.978;2023-12-20T07:17:06;3.13;;;1.90;;
19030;SDS011;9648;51.130;13.978;2023-12-20T07:20:11;2.07;;;1.40;;
19030;SDS011;9648;51.130;13.978;2023-12-20T07:23:13;1.47;;;1.07;;
19030;SDS011;9648;51.130;13.978;2023-12-20T07:26:16;5.30;;;1.33;;
19030;SDS011;9648;51.130;13.978;2023-12-20T07:29:19;2.67;;;1.20;;
19030;SDS011;9648;51.130;13.978;2023-12-20T07:32:21;4.77;;;1.30;;
19030;SDS011;9648;51.130;13.978;2023-12-20T07:35:22;2.80;;;1.20;;
19030;SDS011;9648;51.130;13.978;2023-12-20T07:38:25;3.87;;;1.40;;
19030;SDS011;9648;51.130;13.978;2023-12-20T07:41:28;2.83;;;1.43;;
19030;SDS011;9648;51.130;13.978;2023-12-20T07:44:29;3.10;;;1.80;;
19030;SDS011;9648;51.130;13.978;2023-12-20T07:47:31;2.60;;;1.60;;
19030;SDS011;9648;51.130;13.978;2023-12-20T07:50:32;3.80;;;2.20;;
19030;SDS011;9648;51.130;13.978;2023-12-20T07:53:34;4.97;;;2.73;;
19030;SDS011;9648;51.130;13.978;2023-12-20T07:56:37;5.33;;;3.60;;
19030;SDS011;9648;51.130;13.978;2023-12-20T07:59:40;4.83;;;3.27;;
19030;SDS011;9648;51.130;13.978;2023-12-20T08:02:41;3.77;;;3.13;;
19030;SDS011;9648;51.130;13.978;2023-12-20T08:05:43;4.77;;;3.07;;
19030;SDS011;9648;51.130;13.978;2023-12-20T08:08:44;4.87;;;3.37;;
19030;SDS011;9648;51.130;13.978;2023-12-20T08:11:48;5.47;;;3.47;;
19030;SDS011;9648;51.130;13.978;2023-12-20T08:14:49;5.83;;;3.30;;
19030;SDS011;9648;51.130;13.978;2023-12-20T08:17:51;6.53;;;3.53;;
19030;SDS011;9648;51.130;13.978;2023-12-20T08:20:53;4.37;;;3.33;;
19030;SDS011;9648;51.130;13.978;2023-12-20T08:23:54;4.37;;;3.47;;
19030;SDS011;9648;51.130;13.978;2023-12-20T08:26:57;5.83;;;3.77;;
19030;SDS011;9648;51.130;13.978;2023-12-20T08:29:59;4.97;;;3.40;;
19030;SDS011;9648;51.130;13.978;2023-12-20T08:33:00;5.40;;;3.17;;
19030;SDS011;9648;51.130;13.978;2023-12-20T08:36:03;7.07;;;3.90;;
19030;SDS011;9648;51.130;13.978;2023-12-20T08:39:05;4.80;;;3.17;;
19030;SDS011;9648;51.130;13.978;2023-12-20T08:42:09;4.30;;;2.93;;
19030;SDS011;9648;51.130;13.978;2023-12-20T08:45:11;6.13;;;3.10;;
19030;SDS011;9648;51.130;13.978;2023-12-20T08:48:12;3.80;;;2.73;;
19030;SDS011;9648;51.130;13.978;2023-12-20T08:51:14;4.40;;;2.70;;
19030;SDS011;9648;51.130;13.978;2023-12-20T08:54:15;7.33;;;2.70;;
19030;SDS011;9648;51.130;13.978;2023-12-20T08:57:21;4.63;;;1.87;;
19030;SDS011;9648;51.130;13.978;2023-12-20T09:00:24;4.33;;;1.90;;
19030;SDS011;9648;51.130;13.978;2023-12-20T09:03:27;5.20;;;2.00;;
19030;SDS011;9648;51.130;13.978;2023-12-20T09:06:29;2.67;;;1.83;;
19030;SDS011;9648;51.130;13.978;2023-12-20T09:09:31;3.17;;;1.87;;
19030;SDS011;9648;51.130;13.978;2023-12-20T09:12:34;3.00;;;2.00;;
19030;SDS011;9648;51.130;13.978;2023-12-20T09:15:38;4.40;;;2.03;;
19030;SDS011;9648;51.130;13.978;2023-12-20T09:18:42;4.20;;;2.40;;
19030;SDS011;9648;51.130;13.978;2023-12-20T09:21:44;8.70;;;3.70;;
19030;SDS011;9648;51.130;13.978;2023-12-20T09:24:45;5.47;;;2.73;;
19030;SDS011;9648;51.130;13.978;2023-12-20T09:27:48;8.77;;;3.10;;
19030;SDS011;9648;51.130;13.978;2023-12-20T09:30:50;5.37;;;1.80;;
19030;SDS011;9648;51.130;13.978;2023-12-20T09:33:51;3.60;;;1.57;;
19030;SDS011;9648;51.130;13.978;2023-12-20T09:36:52;2.57;;;1.40;;
19030;SDS011;9648;51.130;13.978;2023-12-20T09:39:55;2.80;;;1.37;;
19030;SDS011;9648;51.130;13.978;2023-12-20T09:42:58;4.97;;;1.57;;
19030;SDS011;9648;51.130;13.978;2023-12-20T09:46:05;3.97;;;1.30;;
19030;SDS011;9648;51.130;13.978;2023-12-20T09:49:08;5.57;;;1.33;;
19030;SDS011;9648;51.130;13.978;2023-12-20T09:52:09;2.00;;;1.03;;
19030;SDS011;9648;51.130;13.978;2023-12-20T09:55:12;4.53;;;1.30;;
19030;SDS011;9648;51.130;13.978;2023-12-20T09:58:15;4.13;;;1.17;;
19030;SDS011;9648;51.130;13.978;2023-12-20T10:01:17;3.20;;;1.30;;
19030;SDS011;9648;51.130;13.978;2023-12-20T10:04:19;5.70;;;1.17;;
19030;SDS011;9648;51.130;13.978;2023-12-20T10:07:21;2.43;;;1.20;;
19030;SDS011;9648;51.130;13.978;2023-12-20T10:10:23;2.17;;;0.90;;
19030;SDS011;9648;51.130;13.978;2023-12-20T10:13:28;6.03;;;1.63;;
19030;SDS011;9648;51.130;13.978;2023-12-20T10:16:43;3.50;;;1.17;;
19030;SDS011;9648;51.130;13.978;2023-12-20T10:19:52;4.73;;;1.30;;
19030;SDS011;9648;51.130;13.978;2023-12-20T10:22:53;6.13;;;1.20;;
19030;SDS011;9648;51.130;13.978;2023-12-20T10:25:55;3.73;;;1.57;;
19030;SDS011;9648;51.130;13.978;2023-12-20T10:29:00;2.93;;;1.13;;
19030;SDS011;9648;51.130;13.978;2023-12-20T10:32:22;3.40;;;0.83;;
19030;SDS011;9648;51.130;13.978;2023-12-20T10:35:25;1.83;;;1.20;;
19030;SDS011;9648;51.130;13.978;2023-12-20T10:38:26;5.93;;;1.30;;
19030;SDS011;9648;51.130;13.978;2023-12-20T10:41:31;3.73;;;1.37;;
19030;SDS011;9648;51.130;13.978;2023-12-20T10:44:35;4.47;;;1.33;;
19030;SDS011;9648;51.130;13.978;2023-12-20T10:47:36;1.87;;;1.03;;
19030;SDS011;9648;51.130;13.978;2023-12-20T10:50:38;2.97;;;1.00;;
19030;SDS011;9648;51.130;13.978;2023-12-20T10:53:41;3.90;;;1.30;;
19030;SDS011;9648;51.130;13.978;2023-12-20T10:56:43;2.73;;;0.80;;
19030;SDS011;9648;51.130;13.978;2023-12-20T10:59:46;5.73;;;2.70;;
19030;SDS011;9648;51.130;13.978;2023-12-20T11:02:49;5.47;;;1.33;;
19030;SDS011;9648;51.130;13.978;2023-12-20T11:05:53;2.33;;;1.10;;
19030;SDS011;9648;51.130;13.978;2023-12-20T11:09:04;2.20;;;1.20;;
19030;SDS011;9648;51.130;13.978;2023-12-20T11:12:13;4.77;;;1.27;;
19030;SDS011;9648;51.130;13.978;2023-12-20T11:15:19;5.33;;;1.80;;
19030;SDS011;9648;51.130;13.978;2023-12-20T11:18:27;4.10;;;1.47;;
19030;SDS011;9648;51.130;13.978;2023-12-20T11:21:29;3.07;;;1.70;;
19030;SDS011;9648;51.130;13.978;2023-12-20T11:24:31;4.40;;;1.93;;
19030;SDS011;9648;51.130;13.978;2023-12-20T11:27:34;3.90;;;1.20;;
19030;SDS011;9648;51.130;13.978;2023-12-20T11:30:43;3.03;;;1.20;;
19030;SDS011;9648;51.130;13.978;2023-12-20T11:33:47;5.33;;;1.63;;
19030;SDS011;9648;51.130;13.978;2023-12-20T11:36:56;1.63;;;0.93;;
19030;SDS011;9648;51.130;13.978;2023-12-20T11:40:00;2.90;;;1.20;;
19030;SDS011;9648;51.130;13.978;2023-12-20T11:43:02;7.33;;;1.37;;
19030;SDS011;9648;51.130;13.978;2023-12-20T11:46:06;4.97;;;1.60;;
19030;SDS011;9648;51.130;13.978;2023-12-20T11:49:09;4.33;;;1.30;;
19030;SDS011;9648;51.130;13.978;2023-12-20T11:52:11;4.77;;;1.50;;
19030;SDS011;9648;51.130;13.978;2023-12-20T11:55:13;3.63;;;1.40;;
19030;SDS011;9648;51.130;13.978;2023-12-20T11:58:14;6.80;;;1.60;;
19030;SDS011;9648;51.130;13.978;2023-12-20T12:01:18;8.50;;;1.13;;
19030;SDS011;9648;51.130;13.978;2023-12-20T12:04:21;3.33;;;1.33;;
19030;SDS011;9648;51.130;13.978;2023-12-20T12:07:22;5.43;;;1.40;;
19030;SDS011;9648;51.130;13.978;2023-12-20T12:10:30;4.03;;;1.37;;
19030;SDS011;9648;51.130;13.978;2023-12-20T12:13:39;5.33;;;1.47;;
19030;SDS011;9648;51.130;13.978;2023-12-20T12:16:42;2.93;;;1.20;;
19030;SDS011;9648;51.130;13.978;2023-12-20T12:19:44;7.70;;;1.63;;
19030;SDS011;9648;51.130;13.978;2023-12-20T12:22:46;2.13;;;1.20;;
19030;SDS011;9648;51.130;13.978;2023-12-20T12:25:50;3.73;;;1.27;;
19030;SDS011;9648;51.130;13.978;2023-12-20T12:28:52;5.40;;;1.80;;
19030;SDS011;9648;51.130;13.978;2023-12-20T12:31:55;4.87;;;1.50;;
19030;SDS011;9648;51.130;13.978;2023-12-20T12:34:56;5.80;;;1.17;;
19030;SDS011;9648;51.130;13.978;2023-12-20T12:37:58;5.33;;;1.43;;
19030;SDS011;9648;51.130;13.978;2023-12-20T12:41:00;4.83;;;1.50;;
19030;SDS011;9648;51.130;13.978;2023-12-20T12:44:02;4.13;;;1.50;;
19030;SDS011;9648;51.130;13.978;2023-12-20T12:47:05;2.40;;;1.00;;
19030;SDS011;9648;51.130;13.978;2023-12-20T12:50:06;3.00;;;1.23;;
19030;SDS011;9648;51.130;13.978;2023-12-20T12:53:08;5.20;;;1.67;;
19030;SDS011;9648;51.130;13.978;2023-12-20T12:56:10;2.20;;;1.33;;
19030;SDS011;9648;51.130;13.978;2023-12-20T12:59:13;4.63;;;1.50;;
19030;SDS011;9648;51.130;13.978;2023-12-20T13:02:16;4.77;;;1.60;;
19030;SDS011;9648;51.130;13.978;2023-12-20T13:05:18;3.93;;;1.50;;
19030;SDS011;9648;51.130;13.978;2023-12-20T13:08:20;2.80;;;1.40;;
19030;SDS011;9648;51.130;13.978;2023-12-20T13:11:21;3.77;;;1.70;;
19030;SDS011;9648;51.130;13.978;2023-12-20T13:14:23;4.47;;;1.67;;
19030;SDS011;9648;51.130;13.978;2023-12-20T13:17:26;4.27;;;1.80;;
19030;SDS011;9648;51.130;13.978;2023-12-20T13:20:27;3.20;;;1.50;;
19030;SDS011;9648;51.130;13.978;2023-12-20T13:23:29;2.50;;;1.20;;
19030;SDS011;9648;51.130;13.978;2023-12-20T13:26:30;2.70;;;1.33;;
19030;SDS011;9648;51.130;13.978;2023-12-20T13:29:32;3.43;;;1.57;;
19030;SDS011;9648;51.130;13.978;2023-12-20T13:32:35;4.63;;;1.27;;
19030;SDS011;9648;51.130;13.978;2023-12-20T13:35:36;4.50;;;1.37;;
19030;SDS011;9648;51.130;13.978;2023-12-20T13:38:38;5.20;;;1.37;;
19030;SDS011;9648;51.130;13.978;2023-12-20T13:41:40;6.53;;;1.50;;
19030;SDS011;9648;51.130;13.978;2023-12-20T13:44:42;4.37;;;1.23;;
19030;SDS011;9648;51.130;13.978;2023-12-20T13:47:45;5.63;;;1.40;;
19030;SDS011;9648;51.130;13.978;2023-12-20T13:50:47;2.63;;;1.00;;
19030;SDS011;9648;51.130;13.978;2023-12-20T13:53:48;2.77;;;1.20;;
19030;SDS011;9648;51.130;13.978;2023-12-20T13:56:50;2.90;;;1.00;;
19030;SDS011;9648;51.130;13.978;2023-12-20T13:59:51;2.87;;;1.20;;
19030;SDS011;9648;51.130;13.978;2023-12-20T14:02:54;3.87;;;1.00;;
19030;SDS011;9648;51.130;13.978;2023-12-20T14:05:57;2.57;;;1.10;;
19030;SDS011;9648;51.130;13.978;2023-12-20T14:08:58;3.40;;;1.30;;
19030;SDS011;9648;51.130;13.978;2023-12-20T14:12:00;3.27;;;1.00;;
19030;SDS011;9648;51.130;13.978;2023-12-20T14:15:02;2.40;;;1.23;;
19030;SDS011;9648;51.130;13.978;2023-12-20T14:18:06;2.00;;;0.93;;
19030;SDS011;9648;51.130;13.978;2023-12-20T14:21:08;4.40;;;1.30;;
19030;SDS011;9648;51.130;13.978;2023-12-20T14:24:10;3.90;;;1.50;;
19030;SDS011;9648;51.130;13.978;2023-12-20T14:27:13;5.83;;;1.50;;
19030;SDS011;9648;51.130;13.978;2023-12-20T14:30:15;3.60;;;1.50;;
19030;SDS011;9648;51.130;13.978;2023-12-20T14:33:18;8.07;;;1.53;;
19030;SDS011;9648;51.130;13.978;2023-12-20T14:36:21;2.40;;;1.30;;
19030;SDS011;9648;51.130;13.978;2023-12-20T14:39:23;3.90;;;1.17;;
19030;SDS011;9648;51.130;13.978;2023-12-20T14:42:25;7.50;;;1.40;;
19030;SDS011;9648;51.130;13.978;2023-12-20T14:45:26;2.27;;;1.10;;
19030;SDS011;9648;51.130;13.978;2023-12-20T14:48:29;4.33;;;1.40;;
19030;SDS011;9648;51.130;13.978;2023-12-20T14:51:31;6.07;;;0.90;;
19030;SDS011;9648;51.130;13.978;2023-12-20T14:54:33;4.33;;;1.30;;
19030;SDS011;9648;51.130;13.978;2023-12-20T14:57:34;3.77;;;1.20;;
19030;SDS011;9648;51.130;13.978;2023-12-20T15:00:36;2.93;;;1.43;;
19030;SDS011;9648;51.130;13.978;2023-12-20T15:03:39;4.23;;;1.17;;
19030;SDS011;9648;51.130;13.978;2023-12-20T15:06:41;6.97;;;1.30;;
19030;SDS011;9648;51.130;13.978;2023-12-20T15:09:45;3.27;;;1.30;;
19030;SDS011;9648;51.130;13.978;2023-12-20T15:12:47;4.17;;;1.10;;
19030;SDS011;9648;51.130;13.978;2023-12-20T15:15:50;1.90;;;1.10;;
19030;SDS011;9648;51.130;13.978;2023-12-20T15:18:53;2.97;;;0.80;;
19030;SDS011;9648;51.130;13.978;2023-12-20T15:21:54;3.57;;;1.20;;
19030;SDS011;9648;51.130;13.978;2023-12-20T15:24:57;3.10;;;1.27;;
19030;SDS011;9648;51.130;13.978;2023-12-20T15:27:59;4.23;;;1.33;;
19030;SDS011;9648;51.130;13.978;2023-12-20T15:31:04;2.00;;;1.07;;
19030;SDS011;9648;51.130;13.978;2023-12-20T15:34:08;4.20;;;1.30;;
19030;SDS011;9648;51.130;13.978;2023-12-20T15:37:09;5.07;;;1.10;;
19030;SDS011;9648;51.130;13.978;2023-12-20T15:40:11;3.50;;;1.20;;
19030;SDS011;9648;51.130;13.978;2023-12-20T15:43:13;3.33;;;1.20;;
19030;SDS011;9648;51.130;13.978;2023-12-20T15:46:14;3.03;;;1.03;;
19030;SDS011;9648;51.130;13.978;2023-12-20T15:49:17;2.50;;;0.80;;
19030;SDS011;9648;51.130;13.978;2023-12-20T15:52:19;3.53;;;1.00;;
19030;SDS011;9648;51.130;13.978;2023-12-20T15:55:20;2.93;;;0.97;;
19030;SDS011;9648;51.130;13.978;2023-12-20T15:58:22;3.63;;;1.17;;
19030;SDS011;9648;51.130;13.978;2023-12-20T16:01:23;3.40;;;1.10;;
19030;SDS011;9648;51.130;13.978;2023-12-20T16:04:26;2.20;;;0.80;;
19030;SDS011;9648;51.130;13.978;2023-12-20T16:07:27;3.90;;;1.20;;
19030;SDS011;9648;51.130;13.978;2023-12-20T16:10:29;3.50;;;1.40;;
19030;SDS011;9648;51.130;13.978;2023-12-20T16:13:34;3.17;;;1.50;;
19030;SDS011;9648;51.130;13.978;2023-12-20T16:16:35;1.87;;;0.90;;
19030;SDS011;9648;51.130;13.978;2023-12-20T16:19:38;2.33;;;1.07;;
19030;SDS011;9648;51.130;13.978;2023-12-20T16:22:40;2.47;;;1.43;;
19030;SDS011;9648;51.130;13.978;2023-12-20T16:25:42;3.70;;;1.20;;
19030;SDS011;9648;51.130;13.978;2023-12-20T16:28:43;1.70;;;0.93;;
19030;SDS011;9648;51.130;13.978;2023-12-20T16:31:45;5.57;;;1.00;;
19030;SDS011;9648;51.130;13.978;2023-12-20T16:34:48;5.20;;;0.93;;
19030;SDS011;9648;51.130;13.978;2023-12-20T16:37:49;1.67;;;1.00;;
19030;SDS011;9648;51.130;13.978;2023-12-20T16:40:51;2.87;;;1.40;;
19030;SDS011;9648;51.130;13.978;2023-12-20T16:43:52;1.50;;;0.97;;
19030;SDS011;9648;51.130;13.978;2023-12-20T16:46:54;2.97;;;1.33;;
19030;SDS011;9648;51.130;13.978;2023-12-20T16:49:57;3.40;;;1.40;;
19030;SDS011;9648;51.130;13.978;2023-12-20T16:52:58;4.13;;;1.30;;
19030;SDS011;9648;51.130;13.978;2023-12-20T16:56:00;3.23;;;1.23;;
19030;SDS011;9648;51.130;13.978;2023-12-20T16:59:01;4.33;;;1.43;;
19030;SDS011;9648;51.130;13.978;2023-12-20T17:02:03;4.73;;;1.40;;
19030;SDS011;9648;51.130;13.978;2023-12-20T17:05:06;3.13;;;1.50;;
19030;SDS011;9648;51.130;13.978;2023-12-20T17:08:09;3.90;;;1.60;;
19030;SDS011;9648;51.130;13.978;2023-12-20T17:11:10;4.50;;;1.40;;
19030;SDS011;9648;51.130;13.978;2023-12-20T17:14:12;3.27;;;1.37;;
19030;SDS011;9648;51.130;13.978;2023-12-20T17:17:13;3.97;;;1.10;;
19030;SDS011;9648;51.130;13.978;2023-12-20T17:20:16;4.53;;;1.43;;
19030;SDS011;9648;51.130;13.978;2023-12-20T17:23:18;4.83;;;1.17;;
19030;SDS011;9648;51.130;13.978;2023-12-20T17:26:20;2.67;;;1.17;;
19030;SDS011;9648;51.130;13.978;2023-12-20T17:29:21;2.33;;;1.37;;
19030;SDS011;9648;51.130;13.978;2023-12-20T17:32:23;3.30;;;1.40;;
19030;SDS011;9648;51.130;13.978;2023-12-20T17:35:26;4.37;;;1.30;;
19030;SDS011;9648;51.130;13.978;2023-12-20T17:38:27;4.80;;;1.47;;
19030;SDS011;9648;51.130;13.978;2023-12-20T17:41:29;3.77;;;1.30;;
19030;SDS011;9648;51.130;13.978;2023-12-20T17:44:30;6.13;;;1.40;;
19030;SDS011;9648;51.130;13.978;2023-12-20T17:47:32;5.07;;;1.53;;
19030;SDS011;9648;51.130;13.978;2023-12-20T17:50:35;2.93;;;1.50;;
19030;SDS011;9648;51.130;13.978;2023-12-20T17:53:36;4.63;;;1.60;;
19030;SDS011;9648;51.130;13.978;2023-12-20T17:56:37;7.27;;;2.07;;
19030;SDS011;9648;51.130;13.978;2023-12-20T17:59:39;6.70;;;1.53;;
19030;SDS011;9648;51.130;13.978;2023-12-20T18:02:41;4.93;;;2.23;;
19030;SDS011;9648;51.130;13.978;2023-12-20T18:05:44;3.67;;;1.73;;
19030;SDS011;9648;51.130;13.978;2023-12-20T18:08:46;6.97;;;1.97;;
19030;SDS011;9648;51.130;13.978;2023-12-20T18:11:48;9.63;;;1.80;;
19030;SDS011;9648;51.130;13.978;2023-12-20T18:14:49;4.63;;;2.17;;
19030;SDS011;9648;51.130;13.978;2023-12-20T18:17:52;5.33;;;2.00;;